createdAt,value
2023-04-03T00:00:53.343Z,98985.09
2023-04-03T00:04:56.241Z,98986.84
2023-04-03T00:08:58.535Z,98985.94
2023-04-03T00:13:00.617Z,98979.91
2023-04-03T00:17:02.757Z,98978.19
2023-04-03T00:21:05.743Z,98974.75
2023-04-03T00:25:08.367Z,98978.19
2023-04-03T00:29:10.389Z,98982.50
2023-04-03T00:33:13.860Z,98982.53
2023-04-03T00:37:15.935Z,98983.38
2023-04-03T00:41:18.341Z,98984.25
2023-04-03T00:45:35.037Z,98985.97
2023-04-03T00:49:39.525Z,98974.72
2023-04-03T00:53:50.350Z,98984.22
2023-04-03T00:57:53.587Z,98979.06
2023-04-03T01:01:57.013Z,98975.59
2023-04-03T01:05:59.604Z,98970.41
2023-04-03T01:10:07.781Z,98977.31
2023-04-03T01:14:09.883Z,98976.44
2023-04-03T01:18:12.381Z,98979.06
2023-04-03T01:22:30.752Z,98973.84
2023-04-03T01:26:34.401Z,98978.19
2023-04-03T01:30:44.076Z,98974.72
2023-04-03T01:34:46.622Z,98979.91
2023-04-03T01:38:49.757Z,98995.44
2023-04-03T01:42:51.838Z,98985.94
2023-04-03T01:46:54.216Z,98986.81
2023-04-03T01:50:58.072Z,98985.09
2023-04-03T01:55:00.311Z,98984.22
2023-04-03T01:59:02.685Z,98992.00
2023-04-03T02:03:04.826Z,98997.19
2023-04-03T02:07:07.312Z,99000.59
2023-04-03T02:11:09.344Z,98993.69
2023-04-03T02:15:11.451Z,98999.72
2023-04-03T02:19:13.554Z,98993.69
2023-04-03T02:23:15.990Z,98989.38
2023-04-03T02:27:18.575Z,98989.34
2023-04-03T02:31:21.739Z,98986.75
2023-04-03T02:35:24.084Z,98993.63
2023-04-03T02:39:27.120Z,98991.91
2023-04-03T02:43:30.361Z,99000.47
2023-04-03T02:47:32.525Z,99000.47
2023-04-03T02:51:34.842Z,99003.06
2023-04-03T02:55:36.987Z,98996.13
2023-04-03T02:59:42.518Z,99014.22
2023-04-03T03:03:46.349Z,99002.25
2023-04-03T03:07:48.575Z,98996.19
2023-04-03T03:11:50.779Z,99003.03
2023-04-03T03:15:52.977Z,99014.19
2023-04-03T03:19:55.120Z,99009.84
2023-04-03T03:23:57.306Z,98999.41
2023-04-03T03:27:59.317Z,99006.28
2023-04-03T03:32:01.586Z,99004.50
2023-04-03T03:36:04.006Z,99005.25
2023-04-03T03:40:06.825Z,99001.75
2023-04-03T03:44:09.012Z,99007.72
2023-04-03T03:48:11.293Z,99006.00
2023-04-03T03:52:13.492Z,99006.69
2023-04-03T03:56:15.639Z,99018.66
2023-04-03T04:00:19.058Z,99020.31
2023-04-03T04:04:27.620Z,99025.41
2023-04-03T04:08:30.772Z,99024.38
2023-04-03T04:12:33.197Z,99014.78
2023-04-03T04:16:35.545Z,99016.41
2023-04-03T04:20:46.272Z,99020.59
2023-04-03T04:24:49.553Z,99010.97
2023-04-03T04:28:51.837Z,99010.75
2023-04-03T04:32:55.433Z,99014.03
2023-04-03T04:36:58.326Z,99021.59
2023-04-03T04:41:01.721Z,99021.53
2023-04-03T04:45:04.185Z,99020.63
2023-04-03T04:49:06.609Z,99023.13
2023-04-03T04:53:09.539Z,99035.91
2023-04-03T04:57:11.861Z,99034.09
2023-04-03T05:01:14.513Z,99034.00
2023-04-03T05:05:25.278Z,99034.72
2023-04-03T05:09:27.484Z,99039.88
2023-04-03T05:13:29.945Z,99047.59
2023-04-03T05:17:32.982Z,99049.31
2023-04-03T05:21:36.196Z,99049.25
2023-04-03T05:25:46.073Z,99057.84
2023-04-03T05:29:48.627Z,99069.84
2023-04-03T05:33:56.005Z,99059.53
2023-04-03T05:37:58.168Z,99073.25
2023-04-03T05:42:01.205Z,99076.69
2023-04-03T05:46:03.751Z,99083.47
2023-04-03T05:50:06.679Z,99071.53
2023-04-03T05:54:21.455Z,99086.13
2023-04-03T05:58:24.078Z,99081.94
2023-04-03T06:02:28.075Z,99089.66
2023-04-03T06:06:48.621Z,99092.25
2023-04-03T06:10:52.419Z,99101.75
2023-04-03T06:14:54.439Z,99102.69
2023-04-03T06:18:57.090Z,99121.66
2023-04-03T06:22:59.579Z,99104.53
2023-04-03T06:27:03.274Z,99107.53
2023-04-03T06:31:05.343Z,99101.75
2023-04-03T06:35:08.094Z,99103.56
2023-04-03T06:39:15.431Z,99117.66
2023-04-03T06:43:17.481Z,99109.00
2023-04-03T06:47:19.839Z,99112.16
2023-04-03T06:51:25.367Z,99101.63
2023-04-03T06:55:27.725Z,99123.09
2023-04-03T06:59:29.790Z,99127.81
2023-04-03T07:03:33.417Z,99140.88
2023-04-03T07:07:36.773Z,99141.84
2023-04-03T07:11:38.856Z,99167.28
2023-04-03T07:15:40.890Z,99169.59
2023-04-03T07:19:42.971Z,99173.72
2023-04-03T07:23:45.404Z,99166.94
2023-04-03T07:27:47.443Z,99168.72
2023-04-03T07:31:50.236Z,99177.41
2023-04-03T07:35:52.734Z,99192.94
2023-04-03T07:39:56.152Z,99180.03
2023-04-03T07:43:58.591Z,99182.75
2023-04-03T07:48:01.043Z,99179.53
2023-04-03T07:52:03.396Z,99202.97
2023-04-03T07:56:05.839Z,99208.22
2023-04-03T08:00:08.686Z,99197.22
2023-04-03T08:04:16.754Z,99215.53
2023-04-03T08:08:22.929Z,99205.19
2023-04-03T08:12:24.931Z,99218.22
2023-04-03T08:16:27.960Z,99217.72
2023-04-03T08:20:30.084Z,99221.84
2023-04-03T08:24:33.565Z,99209.97
2023-04-03T08:28:35.676Z,99210.00
2023-04-03T08:32:38.018Z,99204.16
2023-04-03T08:36:40.062Z,99193.91
2023-04-03T08:40:42.649Z,99209.47
2023-04-03T08:45:01.119Z,99183.56
2023-04-03T08:49:03.687Z,99190.38
2023-04-03T08:53:13.051Z,99195.47
2023-04-03T08:57:15.617Z,99204.16
2023-04-03T09:01:37.933Z,99197.34
2023-04-03T09:05:49.788Z,99203.44
2023-04-03T09:09:53.963Z,99191.34
2023-04-03T09:14:03.975Z,99179.38
2023-04-03T09:18:12.054Z,99193.91
2023-04-03T09:22:28.532Z,99206.13
2023-04-03T09:26:34.185Z,99188.00
2023-04-03T09:30:37.086Z,99189.91
2023-04-03T09:34:42.711Z,99209.81
2023-04-03T09:38:44.720Z,99191.81
2023-04-03T09:42:51.927Z,99224.69
2023-04-03T09:46:58.209Z,99195.22
2023-04-03T09:51:02.680Z,99209.00
2023-04-03T09:55:09.381Z,99208.94
2023-04-03T09:59:17.865Z,99194.34
2023-04-03T10:03:36.497Z,99190.09
2023-04-03T10:07:39.101Z,99194.41
2023-04-03T10:12:07.983Z,99196.19
2023-04-03T10:16:15.890Z,99210.06
2023-04-03T10:20:38.430Z,99199.59
2023-04-03T10:25:05.565Z,99191.88
2023-04-03T10:29:19.725Z,99178.91
2023-04-03T10:33:33.984Z,99180.63
2023-04-03T10:37:42.250Z,99179.75
2023-04-03T10:42:12.843Z,99169.38
2023-04-03T10:46:23.782Z,99165.91
2023-04-03T10:50:37.003Z,99161.53
2023-04-03T10:55:14.440Z,99162.44
2023-04-03T10:59:41.420Z,99188.44
2023-04-03T11:03:48.884Z,99161.59
2023-04-03T11:07:54.313Z,99152.03
2023-04-03T11:12:03.133Z,99162.44
2023-04-03T11:16:06.609Z,99154.63
2023-04-03T11:20:20.463Z,99152.03
2023-04-03T11:24:29.595Z,99160.69
2023-04-03T11:28:33.135Z,99158.06
2023-04-03T11:33:08.250Z,99146.81
2023-04-03T11:37:39.670Z,99147.66
2023-04-03T11:41:41.708Z,99140.69
2023-04-03T11:45:50.623Z,99153.75
2023-04-03T11:50:02.411Z,99141.66
2023-04-03T11:54:44.751Z,99132.09
2023-04-03T11:59:06.041Z,99137.25
2023-04-03T12:03:28.312Z,99119.97
2023-04-03T12:07:30.405Z,99119.06
2023-04-03T12:11:34.646Z,99119.91
2023-04-03T12:15:48.791Z,99110.25
2023-04-03T12:19:51.269Z,99108.41
2023-04-03T12:24:04.838Z,99124.00
2023-04-03T12:28:11.568Z,99107.63
2023-04-03T12:32:38.537Z,99110.22
2023-04-03T12:36:49.110Z,99112.03
2023-04-03T12:41:02.127Z,99116.38
2023-04-03T12:45:22.607Z,99105.16
2023-04-03T12:49:27.445Z,99107.78
2023-04-03T12:53:35.204Z,99093.88
2023-04-03T12:57:37.417Z,99098.94
2023-04-03T13:01:39.604Z,99073.78
2023-04-03T13:05:46.351Z,99082.34
2023-04-03T13:10:00.762Z,99071.91
2023-04-03T13:14:17.858Z,99076.94
2023-04-03T13:18:39.082Z,99084.97
2023-04-03T13:22:50.404Z,99081.63
2023-04-03T13:26:53.405Z,99077.19
2023-04-03T13:31:17.845Z,99075.47
2023-04-03T13:35:36.648Z,99063.97
2023-04-03T13:39:40.671Z,99051.53
2023-04-03T13:43:43.190Z,99058.22
2023-04-03T13:47:47.105Z,99072.03
2023-04-03T13:51:57.168Z,99058.75
2023-04-03T13:56:30.018Z,99061.59
2023-04-03T14:00:40.279Z,99046.84
2023-04-03T14:04:45.467Z,99042.41
2023-04-03T14:08:49.777Z,99039.72
2023-04-03T14:12:52.069Z,99035.44
2023-04-03T14:16:57.162Z,99040.59
2023-04-03T14:20:59.189Z,99034.41
2023-04-03T14:25:01.847Z,99030.00
2023-04-03T14:29:04.133Z,99024.91
2023-04-03T14:33:07.886Z,99031.03
2023-04-03T14:37:15.733Z,99021.47
2023-04-03T14:41:21.913Z,99025.78
2023-04-03T14:45:24.097Z,99024.91
2023-04-03T14:49:30.030Z,99018.78
2023-04-03T14:53:38.811Z,99016.19
2023-04-03T14:57:41.134Z,99015.56
2023-04-03T15:01:43.322Z,99014.66
2023-04-03T15:05:47.085Z,99011.94
2023-04-03T15:09:50.041Z,99004.09
2023-04-03T15:13:52.075Z,99015.34
2023-04-03T15:17:58.510Z,99006.69
2023-04-03T15:22:00.937Z,99005.91
2023-04-03T15:26:03.792Z,99017.28
2023-04-03T15:30:09.342Z,99006.91
2023-04-03T15:34:11.433Z,99006.91
2023-04-03T15:38:13.516Z,99004.25
2023-04-03T15:42:15.543Z,98999.88
2023-04-03T15:46:17.592Z,99006.78
2023-04-03T15:50:19.676Z,99009.53
2023-04-03T15:54:21.726Z,98996.59
2023-04-03T15:58:23.824Z,99010.44
2023-04-03T16:02:28.227Z,99003.50
2023-04-03T16:06:31.546Z,98989.56
2023-04-03T16:10:33.650Z,98995.50
2023-04-03T16:14:35.664Z,99004.34
2023-04-03T16:18:37.959Z,99005.34
2023-04-03T16:22:40.880Z,99007.03
2023-04-03T16:26:42.914Z,99017.50
2023-04-03T16:30:48.035Z,99018.44
2023-04-03T16:34:50.197Z,99013.22
2023-04-03T16:38:52.395Z,99009.81
2023-04-03T16:42:54.441Z,99014.22
2023-04-03T16:46:56.654Z,99014.22
2023-04-03T16:50:58.958Z,99006.47
2023-04-03T16:55:01.050Z,99014.28
2023-04-03T16:59:03.221Z,99021.22
2023-04-03T17:03:05.366Z,99035.13
2023-04-03T17:07:08.227Z,99027.38
2023-04-03T17:11:10.318Z,99027.38
2023-04-03T17:15:12.420Z,99031.72
2023-04-03T17:19:14.610Z,99027.41
2023-04-03T17:23:16.587Z,99031.75
2023-04-03T17:27:18.583Z,99035.22
2023-04-03T17:31:20.782Z,99033.53
2023-04-03T17:35:23.246Z,99034.38
2023-04-03T17:39:25.435Z,99035.25
2023-04-03T17:43:28.094Z,99044.78
2023-04-03T17:47:30.327Z,99046.50
2023-04-03T17:51:35.379Z,99052.56
2023-04-03T17:55:39.344Z,99055.13
2023-04-03T17:59:41.705Z,99053.38
2023-04-03T18:03:44.367Z,99054.25
2023-04-03T18:07:46.607Z,99054.25
2023-04-03T18:11:50.155Z,99050.78
2023-04-03T18:15:52.222Z,99061.09
2023-04-03T18:19:54.332Z,99059.38
2023-04-03T18:23:56.795Z,99054.16
2023-04-03T18:28:00.091Z,99061.06
2023-04-03T18:32:06.663Z,99062.75
2023-04-03T18:36:09.126Z,99062.72
2023-04-03T18:40:11.914Z,99056.63
2023-04-03T18:44:17.722Z,99064.38
2023-04-03T18:48:21.181Z,99063.47
2023-04-03T18:52:25.238Z,99068.59
2023-04-03T18:56:28.127Z,99066.00
2023-04-03T19:00:30.441Z,99072.03
2023-04-03T19:04:32.592Z,99074.59
2023-04-03T19:08:35.172Z,99078.91
2023-04-03T19:12:37.148Z,99074.56
2023-04-03T19:16:39.433Z,99099.56
2023-04-03T19:20:41.522Z,99092.63
2023-04-03T19:24:43.615Z,99087.41
2023-04-03T19:28:48.813Z,99089.13
2023-04-03T19:32:51.601Z,99102.03
2023-04-03T19:36:55.333Z,99099.38
2023-04-03T19:40:57.724Z,99104.53
2023-04-03T19:44:59.813Z,99103.56
2023-04-03T19:49:02.246Z,99100.13
2023-04-03T19:53:04.570Z,99100.13
2023-04-03T19:57:07.227Z,99106.09
2023-04-03T20:01:09.296Z,99101.72
2023-04-03T20:05:11.648Z,99108.56
2023-04-03T20:09:13.663Z,99111.97
2023-04-03T20:13:15.750Z,99111.06
2023-04-03T20:17:17.764Z,99108.44
2023-04-03T20:21:19.795Z,99109.28
2023-04-03T20:25:43.721Z,99110.06
2023-04-03T20:29:44.511Z,99122.06
2023-04-03T20:33:48.506Z,99116.88
2023-04-03T20:37:50.961Z,99122.88
2023-04-03T20:41:52.993Z,99120.25
2023-04-03T20:45:55.629Z,99114.22
2023-04-03T20:49:57.764Z,99116.78
2023-04-03T20:53:59.783Z,99119.28
2023-04-03T20:58:02.158Z,99107.19
2023-04-03T21:02:04.592Z,99109.72
2023-04-03T21:06:44.251Z,99108.78
2023-04-03T21:11:24.458Z,99107.84
2023-04-03T21:15:54.677Z,99099.97
2023-04-03T21:19:57.006Z,99098.19
2023-04-03T21:24:01.060Z,99105.94
2023-04-03T21:28:04.143Z,99100.75
2023-04-03T21:32:06.211Z,99100.72
2023-04-03T21:36:11.225Z,99094.63
2023-04-03T21:40:13.415Z,99089.44
2023-04-03T21:44:15.497Z,99085.97
2023-04-03T21:48:19.079Z,99085.03
2023-04-03T21:52:21.180Z,99085.84
2023-04-03T21:56:24.275Z,99091.00
2023-04-03T22:00:26.464Z,99086.63
2023-04-03T22:04:29.946Z,99079.72
2023-04-03T22:08:31.935Z,99074.56
2023-04-03T22:12:34.103Z,99076.44
2023-04-03T22:16:36.276Z,99070.28
2023-04-03T22:20:38.426Z,99075.34
2023-04-03T22:24:40.940Z,99077.84
2023-04-03T22:28:45.832Z,99077.75
2023-04-03T22:32:47.843Z,99070.81
2023-04-03T22:36:49.862Z,99070.81
2023-04-03T22:41:03.487Z,99069.03
2023-04-03T22:45:06.625Z,99068.09
2023-04-03T22:49:08.685Z,99076.69
2023-04-03T22:53:11.101Z,99071.50
2023-04-03T22:57:13.117Z,99070.56
2023-04-03T23:01:15.790Z,99073.91
2023-04-03T23:05:18.056Z,99080.69
2023-04-03T23:09:20.145Z,99075.44
2023-04-03T23:13:23.252Z,99068.53
2023-04-03T23:17:25.307Z,99071.97
2023-04-03T23:21:27.935Z,99071.97
2023-04-03T23:25:30.238Z,99079.69
2023-04-03T23:29:33.148Z,99074.50
2023-04-03T23:33:38.264Z,99071.03
2023-04-03T23:37:40.567Z,99076.16
2023-04-03T23:41:44.282Z,99064.06
2023-04-03T23:45:46.768Z,99076.97
2023-04-03T23:49:48.864Z,99075.22
2023-04-03T23:53:51.068Z,99064.84
2023-04-03T23:57:53.089Z,99064.81
